createdAt,value
2023-04-28T00:01:19.267Z,12.58
2023-04-28T00:03:47.019Z,12.65
2023-04-28T00:06:14.587Z,12.64
2023-04-28T00:08:42.076Z,12.56
2023-04-28T00:11:10.875Z,12.50
2023-04-28T00:13:38.455Z,12.54
2023-04-28T00:16:08.358Z,12.52
2023-04-28T00:18:35.827Z,12.44
2023-04-28T00:21:03.258Z,12.45
2023-04-28T00:23:30.733Z,12.45
2023-04-28T00:25:58.270Z,12.51
2023-04-28T00:30:56.227Z,12.53
2023-04-28T00:33:24.998Z,12.56
2023-04-28T00:36:00.027Z,12.52
2023-04-28T00:38:27.488Z,12.59
2023-04-28T00:40:54.929Z,12.59
2023-04-28T00:43:22.626Z,12.54
2023-04-28T00:45:50.247Z,12.48
2023-04-28T00:48:17.868Z,12.48
2023-04-28T00:50:47.633Z,12.39
2023-04-28T00:53:15.344Z,12.49
2023-04-28T00:55:42.828Z,12.55
2023-04-28T00:58:10.609Z,12.39
2023-04-28T01:00:38.026Z,12.42
2023-04-28T01:03:05.777Z,12.37
2023-04-28T01:05:34.045Z,12.43
2023-04-28T01:08:02.953Z,12.56
2023-04-28T01:10:30.711Z,12.56
2023-04-28T01:12:58.139Z,12.50
2023-04-28T01:15:25.588Z,12.48
2023-04-28T01:17:53.258Z,12.38
2023-04-28T01:20:20.979Z,12.44
2023-04-28T01:22:48.392Z,12.39
2023-04-28T01:25:17.180Z,12.42
2023-04-28T01:27:44.582Z,12.42
2023-04-28T01:30:12.503Z,12.47
2023-04-28T01:32:39.948Z,12.38
2023-04-28T01:35:07.816Z,12.29
2023-04-28T01:37:35.234Z,12.46
2023-04-28T01:40:02.683Z,12.47
2023-04-28T01:42:31.517Z,12.52
2023-04-28T01:44:58.935Z,12.42
2023-04-28T01:47:26.381Z,12.43
2023-04-28T01:49:53.815Z,12.33
2023-04-28T01:52:22.968Z,12.34
2023-04-28T01:54:50.409Z,12.35
2023-04-28T01:57:18.179Z,12.36
2023-04-28T01:59:48.211Z,12.32
2023-04-28T02:02:15.691Z,12.27
2023-04-28T02:04:43.185Z,12.06
2023-04-28T02:07:10.695Z,11.94
2023-04-28T02:09:38.164Z,12.10
2023-04-28T02:12:05.765Z,11.94
2023-04-28T02:14:33.210Z,11.77
2023-04-28T02:17:02.922Z,11.60
2023-04-28T02:19:30.570Z,11.61
2023-04-28T02:21:58.129Z,11.60
2023-04-28T02:24:25.644Z,11.84
2023-04-28T02:26:53.566Z,11.87
2023-04-28T02:29:21.239Z,11.86
2023-04-28T02:31:48.701Z,12.16
2023-04-28T02:34:17.603Z,12.18
2023-04-28T02:36:45.130Z,12.15
2023-04-28T02:39:12.735Z,12.07
2023-04-28T02:41:40.214Z,11.97
2023-04-28T02:44:07.669Z,11.81
2023-04-28T02:46:35.873Z,11.65
2023-04-28T02:49:03.620Z,11.55
2023-04-28T02:51:32.804Z,11.51
2023-04-28T02:54:00.261Z,11.54
2023-04-28T02:56:29.711Z,11.77
2023-04-28T02:58:57.235Z,11.90
2023-04-28T03:01:24.975Z,11.93
2023-04-28T03:03:52.626Z,11.93
2023-04-28T03:06:20.245Z,11.88
2023-04-28T03:08:49.045Z,11.92
2023-04-28T03:11:16.503Z,11.93
2023-04-28T03:13:43.947Z,11.83
2023-04-28T03:16:11.447Z,11.92
2023-04-28T03:18:38.942Z,11.65
2023-04-28T03:21:06.550Z,11.67
2023-04-28T03:23:33.982Z,11.77
2023-04-28T03:26:02.754Z,11.71
2023-04-28T03:28:30.259Z,11.85
2023-04-28T03:30:57.697Z,11.78
2023-04-28T03:33:25.489Z,11.59
2023-04-28T03:35:53.537Z,11.41
2023-04-28T03:38:21.090Z,11.23
2023-04-28T03:40:48.513Z,11.22
2023-04-28T03:43:17.287Z,11.21
2023-04-28T03:45:44.781Z,11.22
2023-04-28T03:48:12.371Z,11.23
2023-04-28T03:50:40.930Z,11.23
2023-04-28T03:53:08.563Z,11.27
2023-04-28T03:55:36.121Z,11.33
2023-04-28T03:58:03.647Z,11.26
2023-04-28T04:00:32.562Z,11.31
2023-04-28T04:03:00.271Z,11.29
2023-04-28T04:05:27.879Z,11.24
2023-04-28T04:07:55.326Z,11.20
2023-04-28T04:10:22.773Z,11.18
2023-04-28T04:12:50.218Z,11.22
2023-04-28T04:15:17.674Z,11.34
2023-04-28T04:17:46.552Z,11.25
2023-04-28T04:20:14.179Z,11.36
2023-04-28T04:22:41.821Z,11.24
2023-04-28T04:25:09.598Z,11.43
2023-04-28T04:27:37.150Z,11.62
2023-04-28T04:30:05.350Z,11.55
2023-04-28T04:32:32.907Z,11.29
2023-04-28T04:35:01.706Z,11.07
2023-04-28T04:37:29.429Z,11.11
2023-04-28T04:39:57.045Z,11.17
2023-04-28T04:42:25.954Z,11.30
2023-04-28T04:44:53.580Z,11.38
2023-04-28T04:47:21.028Z,11.23
2023-04-28T04:49:49.230Z,11.14
2023-04-28T04:52:18.057Z,11.25
2023-04-28T04:54:46.280Z,11.28
2023-04-28T04:57:13.982Z,11.45
2023-04-28T04:59:41.435Z,11.63
2023-04-28T05:02:08.950Z,11.53
2023-04-28T05:04:36.656Z,11.59
2023-04-28T05:07:04.156Z,11.63
2023-04-28T05:09:33.865Z,11.78
2023-04-28T05:12:01.650Z,11.70
2023-04-28T05:14:29.121Z,11.73
2023-04-28T05:16:56.927Z,11.68
2023-04-28T05:19:24.501Z,11.69
2023-04-28T05:21:53.803Z,11.56
2023-04-28T05:24:23.499Z,11.59
2023-04-28T05:26:53.918Z,11.37
2023-04-28T05:29:21.685Z,11.35
2023-04-28T05:31:49.194Z,11.38
2023-04-28T05:34:17.060Z,11.38
2023-04-28T05:36:45.499Z,11.42
2023-04-28T05:39:13.028Z,11.47
2023-04-28T05:41:40.626Z,11.48
2023-04-28T05:44:09.479Z,11.51
2023-04-28T05:46:37.557Z,11.45
2023-04-28T05:49:05.004Z,11.34
2023-04-28T05:51:33.607Z,10.97
2023-04-28T05:54:01.309Z,11.09
2023-04-28T05:56:28.829Z,11.05
2023-04-28T05:58:56.774Z,11.13
2023-04-28T06:01:28.237Z,11.11
2023-04-28T06:03:57.940Z,11.00
2023-04-28T06:06:26.010Z,11.05
2023-04-28T06:08:53.516Z,10.95
2023-04-28T06:11:22.376Z,10.90
2023-04-28T06:13:50.146Z,11.07
2023-04-28T06:16:17.820Z,11.11
2023-04-28T06:18:48.449Z,11.09
2023-04-28T06:21:17.589Z,11.10
2023-04-28T06:23:45.049Z,11.10
2023-04-28T06:26:12.504Z,11.02
2023-04-28T06:28:39.994Z,11.01
2023-04-28T06:31:07.497Z,11.01
2023-04-28T06:33:35.053Z,11.00
2023-04-28T06:36:04.672Z,10.82
2023-04-28T06:38:32.144Z,10.87
2023-04-28T06:40:59.600Z,11.00
2023-04-28T06:43:27.200Z,11.07
2023-04-28T06:45:54.692Z,11.00
2023-04-28T06:48:22.143Z,10.98
2023-04-28T06:50:49.589Z,10.97
2023-04-28T06:53:18.469Z,10.97
2023-04-28T06:55:45.895Z,10.88
2023-04-28T06:58:13.389Z,10.91
2023-04-28T07:00:40.956Z,10.80
2023-04-28T07:03:08.948Z,10.91
2023-04-28T07:05:36.807Z,11.00
2023-04-28T07:08:04.418Z,10.94
2023-04-28T07:10:33.281Z,10.93
2023-04-28T07:13:00.728Z,10.93
2023-04-28T07:15:28.567Z,11.01
2023-04-28T07:17:56.275Z,11.01
2023-04-28T07:20:23.764Z,10.90
2023-04-28T07:22:51.312Z,11.01
2023-04-28T07:25:18.827Z,11.07
2023-04-28T07:27:48.167Z,11.11
2023-04-28T07:30:26.493Z,11.00
2023-04-28T07:32:54.619Z,11.21
2023-04-28T07:35:22.638Z,11.30
2023-04-28T07:37:50.457Z,11.23
2023-04-28T07:40:18.454Z,11.21
2023-04-28T07:42:46.098Z,11.19
2023-04-28T07:45:15.793Z,11.24
2023-04-28T07:47:43.320Z,11.28
2023-04-28T07:50:12.528Z,11.22
2023-04-28T07:52:40.444Z,10.99
2023-04-28T07:55:08.338Z,11.12
2023-04-28T07:57:36.195Z,11.36
2023-04-28T08:00:03.967Z,11.58
2023-04-28T08:02:34.363Z,11.49
2023-04-28T08:05:02.414Z,11.65
2023-04-28T08:07:30.080Z,11.51
2023-04-28T08:09:57.554Z,11.45
2023-04-28T08:12:25.017Z,11.61
2023-04-28T08:14:52.466Z,11.74
2023-04-28T08:17:19.951Z,11.85
2023-04-28T08:19:48.793Z,11.86
2023-04-28T08:22:16.258Z,11.86
2023-04-28T08:24:43.744Z,11.93
2023-04-28T08:27:13.943Z,11.86
2023-04-28T08:29:41.428Z,11.81
2023-04-28T08:32:08.981Z,11.95
2023-04-28T08:34:36.480Z,12.05
2023-04-28T08:37:06.819Z,12.07
2023-04-28T08:39:35.283Z,12.07
2023-04-28T08:42:04.593Z,12.04
2023-04-28T08:44:35.901Z,11.90
2023-04-28T08:47:04.928Z,11.96
2023-04-28T08:49:36.073Z,11.98
2023-04-28T08:52:10.511Z,12.02
2023-04-28T08:54:39.482Z,12.12
2023-04-28T08:57:09.556Z,12.15
2023-04-28T08:59:40.191Z,12.00
2023-04-28T09:02:08.695Z,12.03
2023-04-28T09:04:36.353Z,12.20
2023-04-28T09:07:05.425Z,12.14
2023-04-28T09:09:35.727Z,12.15
2023-04-28T09:12:05.295Z,12.25
2023-04-28T09:14:34.323Z,12.25
2023-04-28T09:17:02.247Z,12.33
2023-04-28T09:19:34.330Z,12.43
2023-04-28T09:22:07.695Z,12.57
2023-04-28T09:24:43.460Z,12.78
2023-04-28T09:27:12.160Z,12.89
2023-04-28T09:29:41.030Z,12.97
2023-04-28T09:32:15.905Z,13.05
2023-04-28T09:34:45.488Z,13.14
2023-04-28T09:37:17.669Z,13.13
2023-04-28T09:39:47.243Z,13.38
2023-04-28T09:42:33.717Z,13.61
2023-04-28T09:45:02.881Z,13.66
2023-04-28T09:47:30.815Z,13.76
2023-04-28T09:49:59.994Z,13.74
2023-04-28T09:52:27.877Z,13.91
2023-04-28T09:54:58.308Z,14.00
2023-04-28T09:57:25.826Z,14.11
2023-04-28T09:59:54.452Z,14.04
2023-04-28T10:02:41.585Z,13.82
2023-04-28T10:05:11.533Z,13.38
2023-04-28T10:07:40.114Z,13.60
2023-04-28T10:10:09.734Z,13.84
2023-04-28T10:12:38.297Z,13.65
2023-04-28T10:15:07.487Z,14.01
2023-04-28T10:17:35.010Z,14.48
2023-04-28T10:20:03.484Z,14.61
2023-04-28T10:22:39.362Z,14.59
2023-04-28T10:25:25.652Z,14.28
2023-04-28T10:27:53.445Z,14.30
2023-04-28T10:30:28.132Z,14.21
2023-04-28T10:33:26.111Z,14.45
2023-04-28T10:35:53.941Z,14.42
2023-04-28T10:38:22.507Z,14.85
2023-04-28T10:40:52.449Z,15.00
2023-04-28T10:43:37.524Z,15.24
2023-04-28T10:46:09.408Z,15.42
2023-04-28T10:49:07.016Z,15.59
2023-04-28T10:51:35.492Z,15.31
2023-04-28T10:54:17.189Z,15.63
2023-04-28T10:57:19.075Z,16.05
2023-04-28T10:59:46.721Z,16.03
2023-04-28T11:02:44.694Z,15.52
2023-04-28T11:05:19.945Z,15.36
2023-04-28T11:08:29.780Z,15.51
2023-04-28T11:11:25.814Z,15.79
2023-04-28T11:13:55.873Z,15.87
2023-04-28T11:16:25.352Z,16.03
2023-04-28T11:18:55.856Z,15.65
2023-04-28T11:21:25.775Z,15.93
2023-04-28T11:23:53.426Z,15.84
2023-04-28T11:26:21.115Z,16.08
2023-04-28T11:28:50.928Z,16.07
2023-04-28T11:31:21.710Z,16.06
2023-04-28T11:33:52.565Z,16.15
2023-04-28T11:36:27.957Z,16.49
2023-04-28T11:38:56.052Z,16.79
2023-04-28T11:41:23.909Z,17.12
2023-04-28T11:43:51.795Z,16.96
2023-04-28T11:46:22.158Z,17.32
2023-04-28T11:48:51.204Z,17.06
2023-04-28T11:51:46.872Z,17.06
2023-04-28T11:54:14.989Z,17.23
2023-04-28T11:56:44.789Z,17.42
2023-04-28T11:59:13.706Z,17.01
2023-04-28T12:01:52.259Z,16.78
2023-04-28T12:04:30.088Z,16.86
2023-04-28T12:07:05.114Z,16.82
2023-04-28T12:09:33.622Z,17.30
2023-04-28T12:12:02.834Z,17.30
2023-04-28T12:14:31.946Z,17.31
2023-04-28T12:17:01.158Z,17.37
2023-04-28T12:19:28.745Z,17.48
2023-04-28T12:22:03.936Z,17.53
2023-04-28T12:24:31.551Z,17.81
2023-04-28T12:27:18.571Z,17.91
2023-04-28T12:29:47.268Z,17.51
2023-04-28T12:32:16.385Z,17.66
2023-04-28T12:34:45.968Z,17.79
2023-04-28T12:37:14.106Z,17.87
2023-04-28T12:39:42.398Z,17.91
2023-04-28T12:42:10.157Z,17.75
2023-04-28T12:44:38.451Z,17.85
2023-04-28T12:47:07.297Z,17.66
2023-04-28T12:49:36.471Z,17.68
2023-04-28T12:52:04.482Z,18.03
2023-04-28T12:54:32.171Z,18.30
2023-04-28T12:56:59.667Z,18.44
2023-04-28T12:59:27.288Z,18.08
2023-04-28T13:01:55.375Z,18.15
2023-04-28T13:04:23.081Z,18.29
2023-04-28T13:06:52.684Z,18.14
2023-04-28T13:09:20.625Z,18.35
2023-04-28T13:11:48.108Z,18.44
2023-04-28T13:14:15.569Z,18.44
2023-04-28T13:16:43.076Z,18.50
2023-04-28T13:19:13.636Z,18.74
2023-04-28T13:21:41.858Z,18.82
2023-04-28T13:24:11.210Z,18.89
2023-04-28T13:26:38.715Z,18.83
2023-04-28T13:29:08.126Z,18.79
2023-04-28T13:31:35.657Z,18.71
2023-04-28T13:34:04.116Z,18.66
2023-04-28T13:36:32.557Z,18.57
2023-04-28T13:39:01.687Z,18.41
2023-04-28T13:41:31.234Z,18.32
2023-04-28T13:43:58.782Z,18.12
2023-04-28T13:46:26.338Z,18.05
2023-04-28T13:48:54.035Z,17.81
2023-04-28T13:51:21.477Z,17.85
2023-04-28T13:53:48.906Z,17.92
2023-04-28T13:56:16.376Z,17.86
2023-04-28T13:58:45.155Z,17.87
2023-04-28T14:01:12.729Z,17.73
2023-04-28T14:03:40.577Z,17.52
2023-04-28T14:06:08.249Z,17.17
2023-04-28T14:08:36.606Z,17.16
2023-04-28T14:11:04.137Z,17.23
2023-04-28T14:13:31.607Z,16.91
2023-04-28T14:16:00.595Z,16.89
2023-04-28T14:18:28.119Z,17.36
2023-04-28T14:20:55.676Z,17.65
2023-04-28T14:23:23.330Z,17.95
2023-04-28T14:25:51.732Z,18.23
2023-04-28T14:28:21.436Z,18.35
2023-04-28T14:30:49.982Z,18.18
2023-04-28T14:33:18.895Z,17.68
2023-04-28T14:35:46.364Z,17.72
2023-04-28T14:38:13.969Z,17.72
2023-04-28T14:40:42.782Z,17.90
2023-04-28T14:43:10.244Z,17.66
2023-04-28T14:45:38.080Z,17.96
2023-04-28T14:48:06.819Z,18.18
2023-04-28T14:50:35.867Z,18.04
2023-04-28T14:53:06.775Z,18.04
2023-04-28T14:55:34.458Z,18.21
2023-04-28T14:58:02.854Z,18.25
2023-04-28T15:00:30.742Z,18.09
2023-04-28T15:02:58.492Z,18.05
2023-04-28T15:05:26.058Z,18.27
2023-04-28T15:07:54.888Z,18.24
2023-04-28T15:10:22.343Z,18.33
2023-04-28T15:12:49.802Z,18.26
2023-04-28T15:15:17.254Z,18.42
2023-04-28T15:17:45.322Z,18.43
2023-04-28T15:20:12.987Z,18.68
2023-04-28T15:22:40.972Z,18.89
2023-04-28T15:25:10.263Z,18.78
2023-04-28T15:27:37.935Z,18.68
2023-04-28T15:30:06.381Z,18.94
2023-04-28T15:32:33.863Z,18.75
2023-04-28T15:35:01.571Z,18.64
2023-04-28T15:37:40.733Z,18.45
2023-04-28T15:40:11.377Z,18.03
2023-04-28T15:42:41.798Z,18.21
2023-04-28T15:45:10.861Z,18.32
2023-04-28T15:47:39.050Z,18.13
2023-04-28T15:50:08.960Z,17.96
2023-04-28T15:52:39.268Z,17.84
2023-04-28T15:55:07.990Z,17.84
2023-04-28T15:57:37.495Z,18.01
2023-04-28T16:00:06.720Z,17.83
2023-04-28T16:02:34.412Z,17.92
2023-04-28T16:05:02.515Z,17.80
2023-04-28T16:07:30.757Z,17.77
2023-04-28T16:09:58.769Z,17.60
2023-04-28T16:12:26.376Z,17.64
2023-04-28T16:14:55.891Z,17.73
2023-04-28T16:17:23.573Z,17.60
2023-04-28T16:19:51.046Z,17.65
2023-04-28T16:22:18.545Z,17.70
2023-04-28T16:24:46.341Z,17.68
2023-04-28T16:27:14.199Z,17.70
2023-04-28T16:29:41.686Z,17.74
2023-04-28T16:32:10.627Z,17.75
2023-04-28T16:34:38.155Z,17.70
2023-04-28T16:37:06.874Z,17.85
2023-04-28T16:39:34.625Z,17.78
2023-04-28T16:42:03.685Z,17.71
2023-04-28T16:44:31.514Z,17.60
2023-04-28T16:46:59.384Z,17.46
2023-04-28T16:49:28.296Z,17.22
2023-04-28T16:51:57.535Z,17.59
2023-04-28T16:54:25.289Z,17.83
2023-04-28T16:56:52.865Z,17.98
2023-04-28T16:59:20.460Z,17.87
2023-04-28T17:01:48.171Z,17.90
2023-04-28T17:04:16.780Z,17.94
2023-04-28T17:06:46.359Z,17.86
2023-04-28T17:09:13.928Z,17.93
2023-04-28T17:11:41.363Z,17.83
2023-04-28T17:14:08.816Z,17.76
2023-04-28T17:16:36.996Z,17.79
2023-04-28T17:19:05.427Z,17.74
2023-04-28T17:21:33.642Z,17.90
2023-04-28T17:24:02.742Z,17.92
2023-04-28T17:26:31.210Z,18.06
2023-04-28T17:28:59.838Z,18.22
2023-04-28T17:31:27.499Z,18.48
2023-04-28T17:33:57.486Z,18.59
2023-04-28T17:36:25.916Z,18.02
2023-04-28T17:38:53.616Z,17.83
2023-04-28T17:41:22.771Z,17.84
2023-04-28T17:43:51.401Z,17.95
2023-04-28T17:46:19.025Z,17.90
2023-04-28T17:48:46.712Z,17.69
2023-04-28T17:51:14.209Z,17.63
2023-04-28T17:53:42.451Z,17.58
2023-04-28T17:56:09.951Z,17.64
2023-04-28T17:58:38.768Z,17.58
2023-04-28T18:01:07.731Z,17.63
2023-04-28T18:03:35.913Z,17.53
2023-04-28T18:06:04.724Z,17.56
2023-04-28T18:08:32.181Z,17.48
2023-04-28T18:11:00.530Z,17.27
2023-04-28T18:13:28.058Z,17.19
2023-04-28T18:15:56.879Z,17.13
2023-04-28T18:18:24.387Z,17.01
2023-04-28T18:20:57.910Z,16.97
2023-04-28T18:23:25.986Z,16.97
2023-04-28T18:25:53.446Z,16.94
2023-04-28T18:28:21.080Z,16.83
2023-04-28T18:30:47.524Z,16.72
2023-04-28T18:33:19.498Z,16.63
2023-04-28T18:35:48.824Z,16.56
2023-04-28T18:38:16.611Z,16.49
2023-04-28T18:40:44.043Z,16.35
2023-04-28T18:43:11.699Z,16.23
2023-04-28T18:45:41.196Z,16.19
2023-04-28T18:48:10.177Z,15.99
2023-04-28T18:50:39.271Z,15.87
2023-04-28T18:53:08.753Z,15.82
2023-04-28T18:55:36.875Z,15.70
2023-04-28T18:58:04.567Z,15.59
2023-04-28T19:00:32.649Z,15.54
2023-04-28T19:03:00.438Z,15.42
2023-04-28T19:05:28.087Z,15.34
2023-04-28T19:07:56.856Z,15.40
2023-04-28T19:10:24.312Z,15.39
2023-04-28T19:12:51.751Z,15.18
2023-04-28T19:15:19.290Z,15.06
2023-04-28T19:17:46.829Z,14.95
2023-04-28T19:20:14.400Z,15.01
2023-04-28T19:22:42.114Z,14.93
2023-04-28T19:25:11.289Z,14.81
2023-04-28T19:27:40.378Z,14.69
2023-04-28T19:30:10.900Z,14.72
2023-04-28T19:32:38.760Z,14.72
2023-04-28T19:35:07.958Z,14.69
2023-04-28T19:37:35.938Z,14.69
2023-04-28T19:40:05.618Z,14.63
2023-04-28T19:42:35.285Z,14.59
2023-04-28T19:45:03.747Z,14.42
2023-04-28T19:47:33.707Z,14.62
2023-04-28T19:50:01.330Z,14.57
2023-04-28T19:52:29.009Z,14.56
2023-04-28T19:54:57.167Z,14.50
2023-04-28T19:57:24.721Z,14.76
2023-04-28T19:59:53.614Z,14.47
2023-04-28T20:02:21.530Z,14.23
2023-04-28T20:04:49.728Z,14.25
2023-04-28T20:07:17.230Z,14.25
2023-04-28T20:09:45.464Z,14.08
2023-04-28T20:12:13.274Z,14.03
2023-04-28T20:14:40.738Z,14.27
2023-04-28T20:17:09.940Z,14.31
2023-04-28T20:19:37.658Z,14.32
2023-04-28T20:22:08.337Z,14.25
2023-04-28T20:24:36.926Z,14.15
2023-04-28T20:27:04.678Z,14.14
2023-04-28T20:29:34.724Z,14.12
2023-04-28T20:32:03.186Z,14.05
2023-04-28T20:34:32.128Z,13.85
2023-04-28T20:37:03.458Z,13.95
2023-04-28T20:39:30.986Z,13.82
2023-04-28T20:41:59.322Z,13.74
2023-04-28T20:44:26.824Z,13.61
2023-04-28T20:46:55.190Z,13.73
2023-04-28T20:49:22.726Z,13.58
2023-04-28T20:51:51.514Z,13.38
2023-04-28T20:54:19.007Z,13.44
2023-04-28T20:56:46.607Z,13.45
2023-04-28T20:59:14.055Z,13.33
2023-04-28T21:01:41.933Z,13.33
2023-04-28T21:04:09.579Z,13.35
2023-04-28T21:06:37.283Z,13.33
2023-04-28T21:09:06.112Z,13.29
2023-04-28T21:11:33.673Z,13.29
2023-04-28T21:14:01.115Z,13.30
2023-04-28T21:16:28.582Z,13.10
2023-04-28T21:18:56.583Z,13.04
2023-04-28T21:21:24.032Z,12.97
2023-04-28T21:23:51.468Z,12.91
2023-04-28T21:26:21.809Z,12.83
2023-04-28T21:28:50.140Z,12.64
2023-04-28T21:31:17.579Z,12.63
2023-04-28T21:33:45.000Z,12.71
2023-04-28T21:36:12.495Z,12.51
2023-04-28T21:38:39.969Z,12.54
2023-04-28T21:41:08.660Z,12.52
2023-04-28T21:43:37.509Z,12.60
2023-04-28T21:46:05.088Z,12.49
2023-04-28T21:48:32.769Z,12.52
2023-04-28T21:51:01.101Z,12.43
2023-04-28T21:53:28.627Z,12.53
2023-04-28T21:55:56.132Z,12.36
2023-04-28T21:58:23.736Z,12.33
2023-04-28T22:00:52.853Z,12.34
2023-04-28T22:03:20.512Z,12.38
2023-04-28T22:05:48.266Z,12.33
2023-04-28T22:08:16.865Z,12.30
2023-04-28T22:10:45.384Z,12.26
2023-04-28T22:13:12.866Z,12.21
2023-04-28T22:15:41.620Z,12.12
2023-04-28T22:18:10.451Z,12.05
2023-04-28T22:20:38.321Z,11.99
2023-04-28T22:23:05.968Z,11.92
2023-04-28T22:25:33.460Z,11.93
2023-04-28T22:28:00.903Z,11.88
2023-04-28T22:30:28.467Z,11.82
2023-04-28T22:32:55.959Z,11.96
2023-04-28T22:35:24.847Z,11.86
2023-04-28T22:37:52.413Z,11.76
2023-04-28T22:40:19.982Z,11.80
2023-04-28T22:42:47.452Z,11.86
2023-04-28T22:45:14.971Z,11.70
2023-04-28T22:47:42.807Z,11.57
2023-04-28T22:50:10.886Z,11.63
2023-04-28T22:52:40.005Z,11.57
2023-04-28T22:55:08.308Z,11.51
2023-04-28T22:57:36.349Z,11.41
2023-04-28T23:00:04.138Z,11.30
2023-04-28T23:02:31.775Z,11.29
2023-04-28T23:04:59.836Z,11.26
2023-04-28T23:07:27.355Z,11.36
2023-04-28T23:09:56.145Z,11.37
2023-04-28T23:12:23.652Z,11.35
2023-04-28T23:14:51.105Z,11.51
2023-04-28T23:17:18.664Z,11.53
2023-04-28T23:19:46.141Z,11.55
2023-04-28T23:22:13.634Z,11.42
2023-04-28T23:24:42.253Z,11.45
2023-04-28T23:27:11.072Z,11.61
2023-04-28T23:29:38.519Z,11.48
2023-04-28T23:32:06.705Z,11.45
2023-04-28T23:34:34.229Z,11.42
2023-04-28T23:37:01.664Z,11.47
2023-04-28T23:39:30.005Z,11.48
2023-04-28T23:41:58.534Z,11.57
2023-04-28T23:44:27.478Z,11.58
2023-04-28T23:46:56.117Z,11.54
2023-04-28T23:49:23.904Z,11.47
2023-04-28T23:51:51.356Z,11.38
2023-04-28T23:54:18.801Z,11.37
2023-04-28T23:56:46.279Z,11.30
2023-04-28T23:59:13.782Z,11.38
